Hlavní strana
METAR-TAF:

METAR-TAF

Letiště :

El Oued, Alžírsko

zeměpisná šířka: 33-30-47N, zeměpisná délka: 006-46-57E, výška: 62 m

Aktuální stav počasí

Zpráva byla vytvořena před 46 minutami, v 09:00 UTC
Východní vítr 6 kt
Teplota 19°C
Vlhkost vzduchu 56%
Tlak 1020 hPa
Viditelnost 10 km a více
Polojasno ve výšce 3000 ft
Oblačno až skoro zataženo ve výšce 9000 ft

METAR: DAUO 100900Z 08006KT 9999 SCT030 BKN090 19/10 Q1020

Čas: 10:46 (09:46 UTC)

Předpověď počasí

Zpráva byla vytvořena před 1 hodinou a 46 minutami, v 08:00 UTC
Předpověď platná od 10 v 09 UTC do 10 v 18 UTC
Východoseverovýchodní vítr 12 kt
Viditelnost: 8000 m
Polojasno ve výšce 3000 ft
Oblačno až skoro zataženo ve výšce 9000 ft
Dočasný
od 10 v 09 UTC do 10 v 12 UTC
Viditelnost: 4000 m
Skoro jasno ve výšce 2600 ft, Cumulonimbus.
slabý déšť

TAF: DAUO 100800Z 1009/1018 06012KT 8000 SCT030 BKN090 TEMPO 1009/1012 4000 -RA FEW026CB

Stav a předpovědi počasí z více než 4 000 letišť (zprávy METAR a TAF).

Červené a žluté tečky na mapě představují dostupné meteorologické stanice.

Když kurzor umístíte na tečku, zobrazí se název stanice.

Pak kliknutím zobrazíte stav a předpověď počasí.

Chcete-li změnit mapu, kliknutím na zelené tlačítko se znaménkem +mapu přiblížíte, kliknutím na zelené tlačítko se znaménkem – mapu oddálíte a kliknutím na zelené šipky přejdete na sousední mapy.


METAR-TAF: